createdAt,value
2022-09-16T00:00:47.647Z,16.60
2022-09-16T00:03:17.757Z,16.50
2022-09-16T00:05:51.846Z,16.50
2022-09-16T00:08:20.439Z,16.50
2022-09-16T00:10:47.262Z,16.50
2022-09-16T00:13:14.812Z,16.50
2022-09-16T00:15:43.940Z,16.40
2022-09-16T00:18:16.646Z,16.50
2022-09-16T00:20:49.200Z,16.50
2022-09-16T00:23:16.225Z,16.50
2022-09-16T00:25:43.040Z,16.50
2022-09-16T00:28:09.871Z,16.50
2022-09-16T00:30:36.988Z,16.50
2022-09-16T00:33:03.860Z,16.50
2022-09-16T00:35:30.601Z,16.50
2022-09-16T00:37:57.282Z,16.50
2022-09-16T00:40:24.176Z,16.60
2022-09-16T00:42:51.015Z,16.50
2022-09-16T00:45:19.643Z,16.50
2022-09-16T00:47:54.074Z,16.50
2022-09-16T00:50:30.194Z,16.50
2022-09-16T00:52:58.786Z,16.50
2022-09-16T00:55:29.438Z,16.40
2022-09-16T00:57:59.412Z,16.50
2022-09-16T01:00:26.202Z,16.50
2022-09-16T01:02:53.088Z,16.50
2022-09-16T01:05:23.600Z,16.50
2022-09-16T01:07:52.460Z,16.50
2022-09-16T01:10:21.999Z,16.50
2022-09-16T01:12:58.652Z,16.40
2022-09-16T01:15:36.474Z,16.40
2022-09-16T01:18:03.198Z,16.30
2022-09-16T01:20:54.766Z,16.30
2022-09-16T01:23:27.317Z,16.30
2022-09-16T01:26:13.062Z,16.30
2022-09-16T01:29:04.562Z,16.30
2022-09-16T01:31:40.495Z,16.30
2022-09-16T01:34:32.271Z,16.30
2022-09-16T01:37:16.410Z,16.30
2022-09-16T01:39:46.325Z,16.30
2022-09-16T01:42:33.748Z,16.20
2022-09-16T01:45:18.390Z,16.20
2022-09-16T01:47:50.933Z,16.20
2022-09-16T01:50:20.901Z,16.20
2022-09-16T01:52:56.232Z,16.20
2022-09-16T01:55:48.983Z,16.10
2022-09-16T01:58:18.906Z,16.10
2022-09-16T02:00:48.268Z,16.10
2022-09-16T02:03:28.648Z,16.20
2022-09-16T02:06:00.353Z,16.20
2022-09-16T02:08:46.996Z,16.20
2022-09-16T02:11:18.028Z,16.20
2022-09-16T02:14:15.360Z,16.20
2022-09-16T02:17:16.228Z,16.30
2022-09-16T02:19:51.484Z,16.30
2022-09-16T02:22:25.429Z,16.30
2022-09-16T02:24:52.881Z,16.30
2022-09-16T02:27:23.017Z,16.30
2022-09-16T02:30:03.289Z,16.40
2022-09-16T02:32:34.246Z,16.30
2022-09-16T02:35:02.792Z,16.30
2022-09-16T02:37:42.767Z,16.30
2022-09-16T02:40:24.530Z,16.30
2022-09-16T02:42:51.967Z,16.30
2022-09-16T02:45:22.032Z,16.30
2022-09-16T02:48:05.643Z,16.30
2022-09-16T02:50:43.453Z,16.30
2022-09-16T02:53:36.604Z,16.30
2022-09-16T02:56:13.429Z,16.30
2022-09-16T02:58:40.419Z,16.30
2022-09-16T03:01:07.541Z,16.30
2022-09-16T03:03:34.358Z,16.20
2022-09-16T03:06:12.626Z,16.20
2022-09-16T03:08:40.353Z,16.20
2022-09-16T03:11:14.538Z,16.20
2022-09-16T03:13:55.277Z,16.20
2022-09-16T03:16:36.398Z,16.20
2022-09-16T03:19:15.159Z,16.20
2022-09-16T03:22:10.557Z,16.20
2022-09-16T03:25:07.403Z,16.30
2022-09-16T03:28:02.841Z,16.30
2022-09-16T03:30:35.993Z,16.30
2022-09-16T03:33:17.138Z,16.20
2022-09-16T03:35:48.005Z,16.30
2022-09-16T03:38:16.709Z,16.30
2022-09-16T03:40:44.206Z,16.30
2022-09-16T03:43:13.000Z,16.30
2022-09-16T03:45:42.805Z,16.30
2022-09-16T03:48:10.865Z,16.30
2022-09-16T03:50:38.091Z,16.30
2022-09-16T03:53:05.032Z,16.30
2022-09-16T03:55:31.952Z,16.30
2022-09-16T03:57:58.630Z,16.20
2022-09-16T04:00:29.669Z,16.20
2022-09-16T04:02:56.678Z,16.20
2022-09-16T04:05:23.789Z,16.20
2022-09-16T04:07:50.943Z,16.20
2022-09-16T04:10:18.800Z,16.20
2022-09-16T04:12:45.707Z,16.20
2022-09-16T04:15:12.852Z,16.10
2022-09-16T04:17:39.638Z,16.10
2022-09-16T04:20:08.247Z,16.10
2022-09-16T04:22:35.081Z,16.10
2022-09-16T04:25:01.762Z,16.10
2022-09-16T04:27:28.626Z,16.10
2022-09-16T04:29:56.344Z,16.10
2022-09-16T04:32:23.802Z,16.00
2022-09-16T04:34:50.501Z,16.10
2022-09-16T04:37:17.176Z,16.00
2022-09-16T04:39:43.893Z,16.00
2022-09-16T04:42:12.617Z,16.00
2022-09-16T04:44:39.676Z,16.00
2022-09-16T04:47:06.866Z,16.00
2022-09-16T04:49:33.621Z,16.00
2022-09-16T04:52:00.327Z,16.00
2022-09-16T04:54:26.982Z,15.90
2022-09-16T04:56:53.652Z,16.00
2022-09-16T04:59:20.574Z,16.00
2022-09-16T05:01:47.299Z,16.00
2022-09-16T05:04:13.964Z,16.00
2022-09-16T05:06:41.799Z,16.00
2022-09-16T05:09:10.267Z,16.00
2022-09-16T05:11:39.000Z,16.10
2022-09-16T05:14:13.337Z,16.10
2022-09-16T05:16:40.038Z,16.10
2022-09-16T05:19:06.949Z,16.10
2022-09-16T05:21:36.154Z,16.10
2022-09-16T05:24:05.879Z,16.10
2022-09-16T05:26:35.205Z,16.10
2022-09-16T05:29:03.914Z,16.10
2022-09-16T05:31:33.330Z,16.10
2022-09-16T05:34:05.551Z,16.10
2022-09-16T05:36:35.185Z,16.10
2022-09-16T05:41:50.124Z,16.10
2022-09-16T05:44:16.906Z,16.10
2022-09-16T05:46:43.889Z,16.10
2022-09-16T05:49:10.900Z,16.10
2022-09-16T05:51:38.909Z,16.20
2022-09-16T05:54:05.649Z,16.20
2022-09-16T05:56:32.538Z,16.20
2022-09-16T05:59:00.434Z,16.20
2022-09-16T06:06:25.233Z,16.20
2022-09-16T06:08:58.869Z,16.40
2022-09-16T06:11:27.419Z,16.40
2022-09-16T06:14:00.122Z,16.40
2022-09-16T06:16:28.016Z,16.50
2022-09-16T06:18:56.058Z,16.50
2022-09-16T06:21:23.585Z,16.60
2022-09-16T06:23:50.688Z,16.60
2022-09-16T06:26:19.625Z,16.60
2022-09-16T06:28:47.174Z,16.70
2022-09-16T06:31:16.244Z,16.70
2022-09-16T06:33:43.581Z,16.70
2022-09-16T06:36:12.878Z,16.70
2022-09-16T06:38:40.037Z,16.70
2022-09-16T06:41:09.015Z,16.80
2022-09-16T06:43:36.485Z,16.90
2022-09-16T06:46:06.625Z,17.00
2022-09-16T06:48:34.009Z,17.10
2022-09-16T06:51:03.501Z,17.20
2022-09-16T06:53:31.887Z,17.40
2022-09-16T06:56:03.132Z,17.40
2022-09-16T06:58:33.376Z,17.50
2022-09-16T07:01:04.911Z,17.50
2022-09-16T07:03:31.620Z,17.50
2022-09-16T07:06:01.810Z,17.40
2022-09-16T07:08:29.405Z,17.40
2022-09-16T07:11:01.461Z,17.30
2022-09-16T07:13:28.384Z,17.40
2022-09-16T07:16:12.438Z,17.50
2022-09-16T07:18:40.870Z,17.40
2022-09-16T07:21:11.136Z,17.30
2022-09-16T07:23:38.857Z,17.10
2022-09-16T07:26:10.012Z,17.10
2022-09-16T07:28:37.915Z,17.10
2022-09-16T07:31:07.874Z,17.10
2022-09-16T07:33:39.807Z,17.00
2022-09-16T07:36:08.823Z,16.90
2022-09-16T07:38:35.766Z,16.90
2022-09-16T07:41:09.051Z,17.10
2022-09-16T07:43:35.726Z,17.20
2022-09-16T07:46:02.946Z,17.30
2022-09-16T07:48:34.950Z,17.50
2022-09-16T07:51:07.875Z,17.70
2022-09-16T07:53:35.243Z,17.70
2022-09-16T07:56:03.546Z,17.70
2022-09-16T07:58:30.290Z,17.70
2022-09-16T08:01:01.896Z,17.60
2022-09-16T08:03:31.043Z,17.70
2022-09-16T08:06:03.458Z,17.60
2022-09-16T08:08:31.342Z,17.60
2022-09-16T08:10:59.636Z,17.60
2022-09-16T08:13:29.131Z,17.70
2022-09-16T08:16:00.294Z,17.70
2022-09-16T08:18:27.228Z,17.80
2022-09-16T08:20:53.910Z,17.90
2022-09-16T08:23:20.643Z,17.90
2022-09-16T08:25:47.446Z,18.00
2022-09-16T08:28:17.602Z,18.00
2022-09-16T08:30:44.459Z,18.00
2022-09-16T08:33:11.268Z,18.10
2022-09-16T08:35:38.866Z,18.30
2022-09-16T08:38:05.948Z,18.40
2022-09-16T08:40:35.691Z,18.60
2022-09-16T08:43:28.730Z,18.80
2022-09-16T08:46:47.618Z,18.90
2022-09-16T08:49:47.121Z,19.00
2022-09-16T08:52:28.289Z,19.00
2022-09-16T08:54:58.554Z,18.90
2022-09-16T08:57:33.595Z,18.90
2022-09-16T09:00:13.340Z,18.90
2022-09-16T09:02:48.392Z,18.80
2022-09-16T09:05:28.550Z,18.80
2022-09-16T09:08:05.990Z,18.80
2022-09-16T09:11:13.602Z,18.80
2022-09-16T09:14:12.354Z,18.80
2022-09-16T09:17:02.847Z,18.80
2022-09-16T09:20:01.239Z,18.80
2022-09-16T09:22:46.112Z,18.70
2022-09-16T09:25:21.865Z,18.70
2022-09-16T09:28:28.292Z,18.70
2022-09-16T09:31:11.845Z,18.70
2022-09-16T09:33:49.809Z,18.80
2022-09-16T09:36:34.696Z,18.80
2022-09-16T09:39:16.358Z,18.70
2022-09-16T09:41:48.840Z,18.70
2022-09-16T09:44:36.743Z,18.80
2022-09-16T09:47:13.694Z,18.80
2022-09-16T09:49:50.991Z,18.90
2022-09-16T09:52:39.643Z,18.90
2022-09-16T09:55:27.725Z,18.90
2022-09-16T09:58:06.350Z,19.00
2022-09-16T10:00:33.235Z,19.10
2022-09-16T10:03:19.084Z,19.20
2022-09-16T10:05:47.813Z,19.30
2022-09-16T10:08:24.996Z,19.50
2022-09-16T10:10:54.816Z,19.50
2022-09-16T10:13:23.304Z,19.60
2022-09-16T10:15:55.590Z,19.60
2022-09-16T10:18:27.444Z,19.50
2022-09-16T10:21:07.710Z,19.40
2022-09-16T10:23:35.839Z,19.40
2022-09-16T10:26:14.358Z,19.30
2022-09-16T10:28:41.084Z,19.30
2022-09-16T10:31:08.687Z,19.20
2022-09-16T10:33:42.762Z,19.10
2022-09-16T10:36:19.576Z,19.20
2022-09-16T10:39:04.968Z,19.10
2022-09-16T10:41:42.336Z,19.20
2022-09-16T10:44:21.952Z,19.20
2022-09-16T10:47:01.534Z,19.20
2022-09-16T10:49:39.717Z,19.30
2022-09-16T10:52:14.561Z,19.30
2022-09-16T10:54:41.354Z,19.30
2022-09-16T10:57:30.041Z,19.30
2022-09-16T11:00:13.827Z,19.30
2022-09-16T11:02:52.568Z,19.30
2022-09-16T11:05:30.113Z,19.30
2022-09-16T11:08:35.705Z,19.40
2022-09-16T11:11:17.018Z,19.40
2022-09-16T11:13:58.503Z,19.40
2022-09-16T11:16:28.299Z,19.40
2022-09-16T11:19:33.262Z,19.40
2022-09-16T11:22:27.031Z,19.40
2022-09-16T11:25:17.925Z,19.30
2022-09-16T11:28:02.611Z,19.30
2022-09-16T11:30:33.743Z,19.40
2022-09-16T11:33:20.399Z,19.30
2022-09-16T11:36:19.543Z,19.30
2022-09-16T11:39:11.792Z,19.30
2022-09-16T11:41:59.940Z,19.30
2022-09-16T11:44:50.186Z,19.30
2022-09-16T11:47:40.540Z,19.40
2022-09-16T11:50:15.002Z,19.40
2022-09-16T11:53:04.898Z,19.30
2022-09-16T11:55:50.285Z,19.40
2022-09-16T11:58:44.148Z,19.40
2022-09-16T12:01:28.923Z,19.40
2022-09-16T12:04:29.429Z,19.40
2022-09-16T12:07:06.828Z,19.40
2022-09-16T12:09:51.703Z,19.40
2022-09-16T12:12:25.791Z,19.40
2022-09-16T12:15:06.138Z,19.50
2022-09-16T12:17:37.189Z,19.50
2022-09-16T12:20:34.817Z,19.60
2022-09-16T12:23:18.854Z,19.50
2022-09-16T12:25:55.780Z,19.50
2022-09-16T12:28:28.216Z,19.40
2022-09-16T12:31:27.178Z,19.50
2022-09-16T12:34:01.938Z,19.50
2022-09-16T12:36:32.780Z,19.60
2022-09-16T12:39:00.371Z,19.50
2022-09-16T12:41:27.018Z,19.60
2022-09-16T12:44:23.502Z,19.50
2022-09-16T12:47:07.335Z,19.50
2022-09-16T12:50:16.027Z,19.50
2022-09-16T12:52:56.099Z,19.50
2022-09-16T12:55:34.631Z,19.60
2022-09-16T12:58:25.932Z,19.60
2022-09-16T13:01:16.476Z,19.70
2022-09-16T13:03:47.956Z,19.80
2022-09-16T13:06:30.841Z,19.80
2022-09-16T13:09:21.656Z,19.80
2022-09-16T13:14:51.461Z,19.80
2022-09-16T13:17:32.150Z,19.80
2022-09-16T13:20:17.316Z,19.80
2022-09-16T13:22:59.104Z,19.80
2022-09-16T13:25:36.740Z,19.80
2022-09-16T13:28:25.171Z,19.80
2022-09-16T13:30:52.647Z,19.90
2022-09-16T13:33:22.985Z,19.90
2022-09-16T13:36:16.575Z,19.80
2022-09-16T13:38:49.782Z,19.80
2022-09-16T13:41:32.727Z,19.70
2022-09-16T13:44:00.043Z,19.70
2022-09-16T13:46:31.307Z,19.70
2022-09-16T13:49:04.256Z,19.60
2022-09-16T13:51:36.203Z,19.60
2022-09-16T13:54:04.403Z,19.60
2022-09-16T13:56:46.695Z,19.60
2022-09-16T13:59:28.314Z,19.60
2022-09-16T14:02:07.823Z,19.60
2022-09-16T14:04:49.094Z,19.60
2022-09-16T14:07:27.140Z,19.60
2022-09-16T14:10:30.540Z,19.50
2022-09-16T14:13:10.961Z,19.40
2022-09-16T14:15:42.910Z,19.30
2022-09-16T14:18:13.584Z,19.20
2022-09-16T14:21:10.507Z,19.10
2022-09-16T14:23:37.326Z,19.00
2022-09-16T14:26:18.894Z,19.10
2022-09-16T14:28:45.935Z,19.00
2022-09-16T14:31:25.297Z,19.00
2022-09-16T14:33:57.097Z,19.00
2022-09-16T14:36:29.773Z,19.00
2022-09-16T14:39:13.903Z,19.00
2022-09-16T14:41:51.926Z,19.00
2022-09-16T14:44:18.835Z,19.00
2022-09-16T14:47:07.435Z,19.10
2022-09-16T14:49:38.124Z,19.10
2022-09-16T14:52:04.986Z,19.00
2022-09-16T14:54:32.217Z,19.00
2022-09-16T14:57:06.480Z,19.00
2022-09-16T14:59:39.912Z,19.00
2022-09-16T15:02:18.535Z,19.00
2022-09-16T15:04:49.007Z,19.00
2022-09-16T15:07:22.936Z,19.00
2022-09-16T15:10:08.380Z,19.00
2022-09-16T15:12:48.990Z,18.90
2022-09-16T15:15:20.760Z,18.90
2022-09-16T15:18:04.051Z,18.80
2022-09-16T15:20:34.081Z,18.80
2022-09-16T15:23:02.731Z,18.80
2022-09-16T15:25:34.385Z,18.70
2022-09-16T15:28:18.355Z,18.70
2022-09-16T15:30:50.163Z,18.70
2022-09-16T15:33:34.348Z,18.60
2022-09-16T15:36:02.738Z,18.60
2022-09-16T15:38:31.179Z,18.50
2022-09-16T15:41:03.403Z,18.50
2022-09-16T15:43:39.184Z,18.40
2022-09-16T15:46:18.221Z,18.40
2022-09-16T15:48:55.670Z,18.40
2022-09-16T15:51:41.140Z,18.40
2022-09-16T15:54:26.043Z,18.30
2022-09-16T15:56:58.969Z,18.20
2022-09-16T15:59:41.954Z,18.20
2022-09-16T16:02:26.992Z,18.20
2022-09-16T16:04:54.180Z,18.20
2022-09-16T16:07:47.003Z,18.20
2022-09-16T16:10:18.298Z,18.10
2022-09-16T16:12:46.133Z,18.10
2022-09-16T16:15:15.681Z,18.00
2022-09-16T16:17:42.932Z,18.00
2022-09-16T16:20:13.150Z,18.10
2022-09-16T16:22:40.749Z,18.00
2022-09-16T16:25:08.131Z,18.00
2022-09-16T16:27:34.885Z,18.00
2022-09-16T16:30:01.729Z,18.00
2022-09-16T16:32:29.017Z,18.00
2022-09-16T16:34:58.191Z,18.00
2022-09-16T16:37:45.838Z,18.00
2022-09-16T16:40:15.032Z,18.00
2022-09-16T16:42:44.028Z,17.90
2022-09-16T16:45:15.373Z,17.90
2022-09-16T16:47:44.386Z,18.00
2022-09-16T16:50:11.962Z,17.90
2022-09-16T16:52:39.561Z,17.90
2022-09-16T16:55:07.657Z,17.90
2022-09-16T16:57:34.817Z,17.80
2022-09-16T17:00:01.908Z,17.80
2022-09-16T17:02:29.261Z,17.80
2022-09-16T17:04:56.387Z,17.70
2022-09-16T17:07:27.759Z,17.70
2022-09-16T17:09:57.633Z,17.60
2022-09-16T17:12:24.866Z,17.60
2022-09-16T17:14:51.619Z,17.60
2022-09-16T17:17:18.301Z,17.60
2022-09-16T17:19:45.013Z,17.60
2022-09-16T17:22:11.761Z,17.50
2022-09-16T17:24:38.421Z,17.60
2022-09-16T17:27:05.367Z,17.50
2022-09-16T17:29:32.456Z,17.50
2022-09-16T17:32:02.506Z,17.50
2022-09-16T17:34:30.053Z,17.50
2022-09-16T17:36:58.357Z,17.50
2022-09-16T17:39:25.860Z,17.50
2022-09-16T17:41:54.431Z,17.40
2022-09-16T17:44:21.414Z,17.30
2022-09-16T17:46:48.203Z,17.20
2022-09-16T17:49:17.498Z,17.10
2022-09-16T17:51:44.737Z,17.00
2022-09-16T17:54:12.377Z,16.90
2022-09-16T17:56:39.394Z,16.70
2022-09-16T17:59:06.217Z,16.60
2022-09-16T18:01:33.023Z,16.40
2022-09-16T18:03:59.982Z,16.30
2022-09-16T18:06:32.206Z,16.20
2022-09-16T18:09:04.109Z,16.20
2022-09-16T18:11:31.192Z,16.00
2022-09-16T18:14:01.446Z,15.90
2022-09-16T18:16:29.882Z,15.90
2022-09-16T18:18:59.546Z,15.80
2022-09-16T18:21:26.695Z,15.70
2022-09-16T18:23:56.284Z,15.60
2022-09-16T18:26:23.765Z,15.60
2022-09-16T18:29:09.082Z,15.60
2022-09-16T18:31:37.822Z,15.60
2022-09-16T18:34:05.104Z,15.60
2022-09-16T18:36:33.370Z,15.60
2022-09-16T18:39:00.174Z,15.60
2022-09-16T18:41:33.688Z,15.50
2022-09-16T18:44:02.646Z,15.50
2022-09-16T18:46:31.956Z,15.50
2022-09-16T18:48:59.173Z,15.50
2022-09-16T18:51:39.934Z,15.50
2022-09-16T18:54:16.802Z,15.60
2022-09-16T18:56:43.879Z,15.60
2022-09-16T18:59:21.425Z,15.60
2022-09-16T19:01:50.351Z,15.60
2022-09-16T19:04:20.849Z,15.60
2022-09-16T19:06:50.386Z,15.50
2022-09-16T19:09:20.873Z,15.40
2022-09-16T19:11:48.020Z,15.40
2022-09-16T19:14:15.485Z,15.40
2022-09-16T19:16:45.124Z,15.40
2022-09-16T19:19:14.684Z,15.40
2022-09-16T19:21:42.390Z,15.30
2022-09-16T19:24:14.301Z,15.40
2022-09-16T19:26:42.063Z,15.40
2022-09-16T19:29:09.365Z,15.40
2022-09-16T19:31:38.596Z,15.40
2022-09-16T19:34:05.992Z,15.30
2022-09-16T19:36:34.744Z,15.30
2022-09-16T19:39:01.792Z,15.30
2022-09-16T19:41:30.736Z,15.20
2022-09-16T19:44:01.090Z,15.20
2022-09-16T19:46:29.531Z,15.10
2022-09-16T19:48:56.479Z,15.00
2022-09-16T19:51:24.494Z,15.00
2022-09-16T19:53:53.281Z,15.00
2022-09-16T19:56:22.502Z,14.90
2022-09-16T19:58:50.833Z,14.90
2022-09-16T20:01:20.922Z,14.90
2022-09-16T20:03:49.358Z,14.80
2022-09-16T20:06:18.853Z,14.80
2022-09-16T20:08:47.334Z,14.90
2022-09-16T20:11:17.234Z,14.90
2022-09-16T20:13:49.107Z,14.90
2022-09-16T20:16:16.832Z,14.90
2022-09-16T20:18:43.813Z,14.90
2022-09-16T20:21:13.905Z,14.80
2022-09-16T20:23:41.357Z,14.80
2022-09-16T20:26:09.535Z,14.70
2022-09-16T20:28:38.746Z,14.60
2022-09-16T20:31:06.222Z,14.60
2022-09-16T20:33:33.700Z,14.70
2022-09-16T20:36:08.689Z,14.70
2022-09-16T20:38:36.973Z,14.70
2022-09-16T20:41:10.873Z,14.70
2022-09-16T20:43:38.442Z,14.70
2022-09-16T20:46:39.094Z,14.70
2022-09-16T20:49:10.393Z,14.70
2022-09-16T20:51:37.826Z,14.80
2022-09-16T20:54:09.664Z,14.80
2022-09-16T20:56:39.354Z,14.90
2022-09-16T20:59:11.293Z,14.80
2022-09-16T21:01:39.583Z,14.70
2022-09-16T21:04:12.149Z,14.70
2022-09-16T21:06:39.350Z,14.60
2022-09-16T21:09:08.796Z,14.60
2022-09-16T21:11:35.946Z,14.60
2022-09-16T21:14:06.474Z,14.60
2022-09-16T21:16:34.921Z,14.60
2022-09-16T21:19:04.096Z,14.60
2022-09-16T21:21:31.135Z,14.50
2022-09-16T21:23:59.020Z,14.40
2022-09-16T21:26:28.690Z,14.50
2022-09-16T21:29:02.516Z,14.50
2022-09-16T21:31:34.889Z,14.50
2022-09-16T21:34:04.956Z,14.40
2022-09-16T21:36:31.753Z,14.40
2022-09-16T21:38:59.116Z,14.50
2022-09-16T21:41:26.586Z,14.50
2022-09-16T21:43:55.729Z,14.50
2022-09-16T21:46:29.087Z,14.50
2022-09-16T21:49:01.176Z,14.60
2022-09-16T21:51:35.218Z,14.60
2022-09-16T21:54:03.710Z,14.60
2022-09-16T21:56:31.268Z,14.70
2022-09-16T21:58:58.381Z,14.70
2022-09-16T22:01:28.277Z,14.70
2022-09-16T22:03:57.733Z,14.70
2022-09-16T22:06:28.046Z,14.70
2022-09-16T22:08:57.114Z,14.70
2022-09-16T22:11:26.021Z,14.60
2022-09-16T22:13:56.877Z,14.60
2022-09-16T22:16:29.547Z,14.60
2022-09-16T22:19:01.690Z,14.60
2022-09-16T22:21:31.071Z,14.60
2022-09-16T22:23:59.339Z,14.50
2022-09-16T22:26:27.060Z,14.60
2022-09-16T22:28:54.018Z,14.60
2022-09-16T22:31:29.368Z,14.60
2022-09-16T22:33:58.406Z,14.60
2022-09-16T22:36:27.511Z,14.60
2022-09-16T22:38:57.217Z,14.60
2022-09-16T22:41:25.267Z,14.60
2022-09-16T22:43:53.679Z,14.60
2022-09-16T22:46:28.649Z,14.60
2022-09-16T22:48:57.018Z,14.60
2022-09-16T22:51:24.333Z,14.50
2022-09-16T22:53:51.299Z,14.60
2022-09-16T22:56:24.797Z,14.60
2022-09-16T22:58:53.683Z,14.70
2022-09-16T23:01:23.037Z,14.70
2022-09-16T23:03:56.586Z,14.70
2022-09-16T23:06:24.952Z,14.70
2022-09-16T23:08:52.581Z,14.70
2022-09-16T23:11:23.491Z,14.60
2022-09-16T23:13:52.907Z,14.70
2022-09-16T23:16:26.183Z,14.70
2022-09-16T23:18:54.771Z,14.60
2022-09-16T23:21:22.376Z,14.70
2022-09-16T23:23:52.499Z,14.70
2022-09-16T23:26:21.959Z,14.70
2022-09-16T23:28:53.414Z,14.70
2022-09-16T23:31:23.022Z,14.70
2022-09-16T23:33:51.186Z,14.70
2022-09-16T23:36:18.523Z,14.70
2022-09-16T23:38:45.932Z,14.70
2022-09-16T23:41:19.783Z,14.60
2022-09-16T23:43:47.894Z,14.50
2022-09-16T23:46:19.134Z,14.50
2022-09-16T23:48:46.194Z,14.50
2022-09-16T23:51:14.018Z,14.50
2022-09-16T23:53:42.414Z,14.50
2022-09-16T23:56:10.998Z,14.50
2022-09-16T23:58:38.104Z,14.50
